createdAt,value
2022-10-25T00:02:18.174Z,3.57
2022-10-25T00:05:21.337Z,2.53
2022-10-25T00:08:25.988Z,2.60
2022-10-25T00:11:30.694Z,2.40
2022-10-25T00:14:34.224Z,2.33
2022-10-25T00:17:37.447Z,1.83
2022-10-25T00:20:40.543Z,1.80
2022-10-25T00:23:45.034Z,1.87
2022-10-25T00:26:48.110Z,2.23
2022-10-25T00:29:52.847Z,2.30
2022-10-25T00:32:56.028Z,2.90
2022-10-25T00:36:05.789Z,1.77
2022-10-25T00:39:10.602Z,2.23
2022-10-25T00:42:16.736Z,1.73
2022-10-25T00:45:24.905Z,4.00
2022-10-25T00:48:29.068Z,5.40
2022-10-25T00:51:36.071Z,3.80
2022-10-25T00:54:46.567Z,2.33
2022-10-25T00:57:56.034Z,2.30
2022-10-25T01:00:59.643Z,3.83
2022-10-25T01:04:08.768Z,2.70
2022-10-25T01:07:11.856Z,2.47
2022-10-25T01:10:16.878Z,1.90
2022-10-25T01:13:20.043Z,2.60
2022-10-25T01:16:31.641Z,2.00
2022-10-25T01:19:55.044Z,1.50
2022-10-25T01:23:06.856Z,1.70
2022-10-25T01:26:45.386Z,1.57
2022-10-25T01:30:08.251Z,1.53
2022-10-25T01:33:21.681Z,1.37
2022-10-25T01:36:33.903Z,1.40
2022-10-25T01:39:42.231Z,1.40
2022-10-25T01:42:53.978Z,1.20
2022-10-25T01:46:05.570Z,1.50
2022-10-25T01:49:15.396Z,1.30
2022-10-25T01:52:22.415Z,1.10
2022-10-25T01:55:32.217Z,1.70
2022-10-25T01:58:43.957Z,1.50
2022-10-25T02:01:59.354Z,1.73
2022-10-25T02:05:11.597Z,1.80
2022-10-25T02:08:22.023Z,1.97
2022-10-25T02:11:26.929Z,1.40
2022-10-25T02:14:35.222Z,1.87
2022-10-25T02:17:43.768Z,1.77
2022-10-25T02:20:50.484Z,1.57
2022-10-25T02:23:54.889Z,1.00
2022-10-25T02:26:59.410Z,1.20
2022-10-25T02:30:03.192Z,1.17
2022-10-25T02:33:06.531Z,1.60
2022-10-25T02:36:15.248Z,1.30
2022-10-25T02:39:19.111Z,1.47
2022-10-25T02:42:22.254Z,1.63
2022-10-25T02:45:25.465Z,1.20
2022-10-25T02:48:28.557Z,1.53
2022-10-25T02:51:33.162Z,1.70
2022-10-25T02:54:36.201Z,1.50
2022-10-25T02:57:39.725Z,1.43
2022-10-25T03:00:43.421Z,1.73
2022-10-25T03:03:46.941Z,1.60
2022-10-25T03:06:51.437Z,2.10
2022-10-25T03:09:54.484Z,1.70
2022-10-25T03:12:57.556Z,1.67
2022-10-25T03:16:00.844Z,1.73
2022-10-25T03:19:04.324Z,2.20
2022-10-25T03:22:08.816Z,1.50
2022-10-25T03:25:11.992Z,1.80
2022-10-25T03:28:15.132Z,2.07
2022-10-25T03:31:20.657Z,2.33
2022-10-25T03:34:23.851Z,1.97
2022-10-25T03:37:28.336Z,2.50
2022-10-25T03:40:31.632Z,3.33
2022-10-25T03:43:34.857Z,2.67
2022-10-25T03:46:37.936Z,3.10
2022-10-25T03:49:41.037Z,3.27
2022-10-25T03:52:45.523Z,3.53
2022-10-25T03:55:49.940Z,3.43
2022-10-25T03:58:53.319Z,3.37
2022-10-25T04:01:56.478Z,3.80
2022-10-25T04:04:59.592Z,3.70
2022-10-25T04:08:04.158Z,3.87
2022-10-25T04:11:07.375Z,3.63
2022-10-25T04:14:10.491Z,3.67
2022-10-25T04:17:13.599Z,3.20
2022-10-25T04:20:16.908Z,3.10
2022-10-25T04:23:21.438Z,4.63
2022-10-25T04:26:24.631Z,3.80
2022-10-25T04:29:27.802Z,4.77
2022-10-25T04:32:30.995Z,4.50
2022-10-25T04:35:34.247Z,3.50
2022-10-25T04:38:38.867Z,3.30
2022-10-25T04:41:41.974Z,4.33
2022-10-25T04:44:45.088Z,3.20
2022-10-25T04:47:48.215Z,2.90
2022-10-25T04:50:51.327Z,3.53
2022-10-25T04:53:56.658Z,3.60
2022-10-25T04:57:00.540Z,3.50
2022-10-25T05:00:03.764Z,4.07
2022-10-25T05:03:10.815Z,4.20
2022-10-25T05:06:18.646Z,3.63
2022-10-25T05:09:23.279Z,3.70
2022-10-25T05:12:26.470Z,4.50
2022-10-25T05:15:29.864Z,3.43
2022-10-25T05:18:33.829Z,4.27
2022-10-25T05:21:36.961Z,3.63
2022-10-25T05:24:41.523Z,3.83
2022-10-25T05:27:44.653Z,3.80
2022-10-25T05:30:47.785Z,3.57
2022-10-25T05:33:52.242Z,3.80
2022-10-25T05:36:55.394Z,4.47
2022-10-25T05:39:59.912Z,3.53
2022-10-25T05:43:03.005Z,3.80
2022-10-25T05:46:08.526Z,4.10
2022-10-25T05:49:12.676Z,3.90
2022-10-25T05:52:15.765Z,3.80
2022-10-25T05:55:20.262Z,3.20
2022-10-25T05:58:23.353Z,3.70
2022-10-25T06:01:27.741Z,2.80
2022-10-25T06:04:30.946Z,2.80
2022-10-25T06:07:34.054Z,3.00
2022-10-25T06:10:38.574Z,2.87
2022-10-25T06:13:42.219Z,1.83
2022-10-25T06:16:45.292Z,2.40
2022-10-25T06:19:48.433Z,2.40
2022-10-25T06:22:51.531Z,2.40
2022-10-25T06:26:00.646Z,2.30
2022-10-25T06:29:05.535Z,2.23
2022-10-25T06:32:08.682Z,2.10
2022-10-25T06:35:11.806Z,2.60
2022-10-25T06:38:14.916Z,2.07
2022-10-25T06:41:21.334Z,2.40
2022-10-25T06:44:24.435Z,2.30
2022-10-25T06:47:27.550Z,2.40
2022-10-25T06:50:30.680Z,2.40
2022-10-25T06:53:33.933Z,2.33
2022-10-25T06:56:38.446Z,2.27
2022-10-25T06:59:41.559Z,2.77
2022-10-25T07:02:44.914Z,2.10
2022-10-25T07:05:48.227Z,1.57
2022-10-25T07:08:55.175Z,2.17
2022-10-25T07:11:59.738Z,2.10
2022-10-25T07:15:02.860Z,2.17
2022-10-25T07:18:06.548Z,1.60
2022-10-25T07:21:13.312Z,1.80
2022-10-25T07:24:16.409Z,2.00
2022-10-25T07:27:20.939Z,2.37
2022-10-25T07:30:24.099Z,2.10
2022-10-25T07:33:27.296Z,2.43
2022-10-25T07:36:30.663Z,2.40
2022-10-25T07:39:33.817Z,2.57
2022-10-25T07:42:38.300Z,2.27
2022-10-25T07:45:41.456Z,2.47
2022-10-25T07:48:44.561Z,1.93
2022-10-25T07:51:47.674Z,1.67
2022-10-25T07:54:50.927Z,2.20
2022-10-25T07:58:01.349Z,2.37
2022-10-25T08:01:06.276Z,2.03
2022-10-25T08:04:09.434Z,2.57
2022-10-25T08:07:12.526Z,2.50
2022-10-25T08:10:15.795Z,2.17
2022-10-25T08:13:20.490Z,2.13
2022-10-25T08:16:23.625Z,1.90
2022-10-25T08:19:26.725Z,2.23
2022-10-25T08:22:29.858Z,2.33
2022-10-25T08:25:32.928Z,1.80
2022-10-25T08:28:37.404Z,2.43
2022-10-25T08:31:40.597Z,5.40
2022-10-25T08:34:43.700Z,2.90
2022-10-25T08:37:47.174Z,2.33
2022-10-25T08:40:58.301Z,1.80
2022-10-25T08:44:17.664Z,1.90
2022-10-25T08:47:26.992Z,1.87
2022-10-25T08:50:36.706Z,1.50
2022-10-25T08:53:45.377Z,1.63
2022-10-25T08:57:03.413Z,1.92
2022-10-25T09:00:21.002Z,1.60
2022-10-25T09:03:26.472Z,1.90
2022-10-25T09:06:37.595Z,2.03
2022-10-25T09:09:47.260Z,2.30
2022-10-25T09:12:58.832Z,2.78
2022-10-25T09:16:11.973Z,5.85
2022-10-25T09:19:19.122Z,2.40
2022-10-25T09:22:27.243Z,2.60
2022-10-25T09:25:36.476Z,2.70
2022-10-25T09:28:55.780Z,1.88
2022-10-25T09:32:01.753Z,2.05
2022-10-25T09:35:07.049Z,1.48
2022-10-25T09:38:15.836Z,1.75
2022-10-25T09:41:23.987Z,1.90
2022-10-25T09:44:40.153Z,1.30
2022-10-25T09:47:51.756Z,2.67
2022-10-25T09:51:02.021Z,2.92
2022-10-25T09:54:16.055Z,3.20
2022-10-25T09:57:19.212Z,2.97
2022-10-25T10:00:22.488Z,3.20
2022-10-25T10:03:30.747Z,3.90
2022-10-25T10:06:37.080Z,3.45
2022-10-25T10:09:45.915Z,3.85
2022-10-25T10:12:54.575Z,3.10
2022-10-25T10:16:00.633Z,2.90
2022-10-25T10:19:18.388Z,2.80
2022-10-25T10:22:21.560Z,3.35
2022-10-25T10:25:28.301Z,3.85
2022-10-25T10:28:32.811Z,3.05
2022-10-25T10:31:38.229Z,3.20
2022-10-25T10:34:45.446Z,3.30
2022-10-25T10:37:49.048Z,3.15
2022-10-25T10:40:54.534Z,3.60
2022-10-25T10:44:13.304Z,3.40
2022-10-25T10:47:22.189Z,2.40
2022-10-25T10:50:31.429Z,2.88
2022-10-25T10:53:35.146Z,3.33
2022-10-25T10:56:38.346Z,2.88
2022-10-25T10:59:47.066Z,2.70
2022-10-25T11:02:50.952Z,2.80
2022-10-25T11:05:56.515Z,2.58
2022-10-25T11:09:15.750Z,2.47
2022-10-25T11:12:18.937Z,3.03
2022-10-25T11:15:22.153Z,2.63
2022-10-25T11:18:37.868Z,1.92
2022-10-25T11:22:03.966Z,2.78
2022-10-25T11:25:18.460Z,3.00
2022-10-25T11:28:41.769Z,2.65
2022-10-25T11:31:58.403Z,2.38
2022-10-25T11:35:06.625Z,1.90
2022-10-25T11:38:23.219Z,1.90
2022-10-25T11:41:37.862Z,1.77
2022-10-25T11:45:05.710Z,1.85
2022-10-25T11:48:32.136Z,1.77
2022-10-25T11:51:45.971Z,1.67
2022-10-25T11:54:58.422Z,1.67
2022-10-25T11:58:11.393Z,1.50
2022-10-25T12:01:39.258Z,1.67
2022-10-25T12:04:52.598Z,1.30
2022-10-25T12:08:08.594Z,1.42
2022-10-25T12:11:18.893Z,1.17
2022-10-25T12:14:29.188Z,1.80
2022-10-25T12:17:35.593Z,1.30
2022-10-25T12:20:51.867Z,1.77
2022-10-25T12:23:56.559Z,1.48
2022-10-25T12:27:01.541Z,1.33
2022-10-25T12:30:07.863Z,1.30
2022-10-25T12:33:21.551Z,1.45
2022-10-25T12:36:32.117Z,1.45
2022-10-25T12:39:41.204Z,1.50
2022-10-25T12:42:48.966Z,1.10
2022-10-25T12:46:29.962Z,0.93
2022-10-25T12:49:58.324Z,0.90
2022-10-25T12:53:29.298Z,1.08
2022-10-25T12:56:45.793Z,1.05
2022-10-25T13:00:03.559Z,1.20
2022-10-25T13:03:56.007Z,1.13
2022-10-25T13:07:00.608Z,1.27
2022-10-25T13:10:07.413Z,0.82
2022-10-25T13:13:19.666Z,0.90
2022-10-25T13:16:29.215Z,1.30
2022-10-25T13:19:53.546Z,1.23
2022-10-25T13:22:56.197Z,0.63
2022-10-25T13:26:08.554Z,1.00
2022-10-25T13:29:46.983Z,0.90
2022-10-25T13:33:24.493Z,1.15
2022-10-25T13:36:48.119Z,0.75
2022-10-25T13:39:55.344Z,0.65
2022-10-25T13:43:05.017Z,0.80
2022-10-25T13:46:12.648Z,0.90
2022-10-25T13:49:32.848Z,0.68
2022-10-25T13:52:37.460Z,0.82
2022-10-25T13:55:47.946Z,0.80
2022-10-25T13:58:52.845Z,1.00
2022-10-25T14:01:56.826Z,1.00
2022-10-25T14:05:00.081Z,0.87
2022-10-25T14:08:20.296Z,0.90
2022-10-25T14:11:34.950Z,0.80
2022-10-25T14:14:50.048Z,0.63
2022-10-25T14:17:53.909Z,0.73
2022-10-25T14:21:01.969Z,0.97
2022-10-25T14:24:13.348Z,0.70
2022-10-25T14:27:30.870Z,1.13
2022-10-25T14:30:38.684Z,0.80
2022-10-25T14:33:46.556Z,0.80
2022-10-25T14:36:51.367Z,0.70
2022-10-25T14:39:55.876Z,0.70
2022-10-25T14:43:20.164Z,0.90
2022-10-25T14:46:25.062Z,0.77
2022-10-25T14:49:28.872Z,1.43
2022-10-25T14:52:32.596Z,0.70
2022-10-25T14:55:37.134Z,0.87
2022-10-25T14:58:42.964Z,0.90
2022-10-25T15:01:54.050Z,0.97
2022-10-25T15:04:59.947Z,0.87
2022-10-25T15:08:03.103Z,1.00
2022-10-25T15:11:14.560Z,1.00
2022-10-25T15:14:22.551Z,0.97
2022-10-25T15:17:28.107Z,1.20
2022-10-25T15:20:32.391Z,2.33
2022-10-25T15:23:35.881Z,1.70
2022-10-25T15:26:51.098Z,2.30
2022-10-25T15:29:54.613Z,2.70
2022-10-25T15:32:57.718Z,2.63
2022-10-25T15:36:03.875Z,1.93
2022-10-25T15:39:23.998Z,2.70
2022-10-25T15:42:28.573Z,2.33
2022-10-25T15:45:32.663Z,3.33
2022-10-25T15:48:35.913Z,3.07
2022-10-25T15:51:42.061Z,2.83
2022-10-25T15:54:45.150Z,2.90
2022-10-25T15:57:50.381Z,3.63
2022-10-25T16:00:54.178Z,4.33
2022-10-25T16:03:57.407Z,3.80
2022-10-25T16:07:00.532Z,4.50
2022-10-25T16:10:03.714Z,3.60
2022-10-25T16:13:13.842Z,4.23
2022-10-25T16:16:39.439Z,15.20
2022-10-25T16:19:43.670Z,14.10
2022-10-25T16:22:47.848Z,9.90
2022-10-25T16:25:51.724Z,5.80
2022-10-25T16:28:56.394Z,4.73
2022-10-25T16:31:59.506Z,4.57
2022-10-25T16:35:02.733Z,4.23
2022-10-25T16:38:07.566Z,4.77
2022-10-25T16:41:24.869Z,4.10
2022-10-25T16:44:29.424Z,3.23
2022-10-25T16:47:32.920Z,3.70
2022-10-25T16:50:36.995Z,2.70
2022-10-25T16:53:40.478Z,3.27
2022-10-25T16:56:44.413Z,10.80
2022-10-25T16:59:50.666Z,6.50
2022-10-25T17:02:54.062Z,37.03
2022-10-25T17:05:57.631Z,19.30
2022-10-25T17:09:01.379Z,16.43
2022-10-25T17:12:04.757Z,12.43
2022-10-25T17:15:10.893Z,23.90
2022-10-25T17:18:18.807Z,49.00
2022-10-25T17:21:22.200Z,40.23
2022-10-25T17:24:26.106Z,25.50
2022-10-25T17:27:29.352Z,35.27
2022-10-25T17:30:34.788Z,8.97
2022-10-25T17:33:38.866Z,6.30
2022-10-25T17:36:42.909Z,6.03
2022-10-25T17:39:47.077Z,4.43
2022-10-25T17:42:51.035Z,4.67
2022-10-25T17:46:01.165Z,4.13
2022-10-25T17:49:06.358Z,5.17
2022-10-25T17:52:11.576Z,4.97
2022-10-25T17:55:15.917Z,4.37
2022-10-25T17:58:20.280Z,3.50
2022-10-25T18:01:28.196Z,4.90
2022-10-25T18:04:46.938Z,4.53
2022-10-25T18:07:57.200Z,4.37
2022-10-25T18:11:11.924Z,4.73
2022-10-25T18:14:15.881Z,5.30
2022-10-25T18:17:23.104Z,6.57
2022-10-25T18:20:28.728Z,5.53
2022-10-25T18:23:36.729Z,5.13
2022-10-25T18:26:41.181Z,6.10
2022-10-25T18:29:45.587Z,5.70
2022-10-25T18:32:53.772Z,5.60
2022-10-25T18:36:02.438Z,7.37
2022-10-25T18:39:06.320Z,9.23
2022-10-25T18:42:10.843Z,5.47
2022-10-25T18:45:16.020Z,10.57
2022-10-25T18:48:23.438Z,5.63
2022-10-25T18:51:29.528Z,7.13
2022-10-25T18:54:34.094Z,9.90
2022-10-25T18:57:41.777Z,4.10
2022-10-25T19:00:46.895Z,5.23
2022-10-25T19:03:53.518Z,10.77
2022-10-25T19:06:58.125Z,12.37
2022-10-25T19:10:03.211Z,11.03
2022-10-25T19:13:08.316Z,11.83
2022-10-25T19:16:16.789Z,9.43
2022-10-25T19:19:22.616Z,8.27
2022-10-25T19:22:27.517Z,11.63
2022-10-25T19:25:32.260Z,7.73
2022-10-25T19:28:38.038Z,7.30
2022-10-25T19:31:42.773Z,8.30
2022-10-25T19:34:52.163Z,11.73
2022-10-25T19:37:56.374Z,14.63
2022-10-25T19:41:03.904Z,12.67
2022-10-25T19:44:07.443Z,10.90
2022-10-25T19:47:12.470Z,8.00
2022-10-25T19:50:18.529Z,6.80
2022-10-25T19:53:23.742Z,7.37
2022-10-25T19:56:29.430Z,13.77
2022-10-25T19:59:33.739Z,10.33
2022-10-25T20:02:38.359Z,7.30
2022-10-25T20:05:44.864Z,22.20
2022-10-25T20:08:49.011Z,8.20
2022-10-25T20:11:52.990Z,15.90
2022-10-25T20:14:57.344Z,11.27
2022-10-25T20:18:01.495Z,6.93
2022-10-25T20:21:11.014Z,7.20
2022-10-25T20:24:15.102Z,6.00
2022-10-25T20:27:20.785Z,4.80
2022-10-25T20:30:24.996Z,5.30
2022-10-25T20:33:29.448Z,5.00
2022-10-25T20:36:35.096Z,4.80
2022-10-25T20:39:39.551Z,5.60
2022-10-25T20:42:43.853Z,6.30
2022-10-25T20:45:48.669Z,9.20
2022-10-25T20:48:52.385Z,5.10
2022-10-25T20:51:57.325Z,4.70
2022-10-25T20:55:00.500Z,4.33
2022-10-25T20:58:03.840Z,3.70
2022-10-25T21:01:07.198Z,4.07
2022-10-25T21:04:10.489Z,3.20
2022-10-25T21:07:15.002Z,3.33
2022-10-25T21:10:18.162Z,3.13
2022-10-25T21:13:21.385Z,2.87
2022-10-25T21:16:24.479Z,2.83
2022-10-25T21:19:27.632Z,3.70
2022-10-25T21:22:32.137Z,4.03
2022-10-25T21:25:35.458Z,3.93
2022-10-25T21:28:40.030Z,3.53
2022-10-25T21:31:43.206Z,3.83
2022-10-25T21:34:46.357Z,4.23
2022-10-25T21:37:51.084Z,4.93
2022-10-25T21:40:54.468Z,4.33
2022-10-25T21:43:59.316Z,3.83
2022-10-25T21:47:02.541Z,3.70
2022-10-25T21:50:06.395Z,3.23
2022-10-25T21:53:10.911Z,4.77
2022-10-25T21:56:15.460Z,4.57
2022-10-25T21:59:18.548Z,5.60
2022-10-25T22:02:21.874Z,6.10
2022-10-25T22:05:25.271Z,4.90
2022-10-25T22:08:29.801Z,4.73
2022-10-25T22:11:35.013Z,5.60
2022-10-25T22:14:38.210Z,4.80
2022-10-25T22:17:41.358Z,5.10
2022-10-25T22:20:44.441Z,3.90
2022-10-25T22:23:49.202Z,4.30
2022-10-25T22:26:52.423Z,5.00
2022-10-25T22:29:55.513Z,3.33
2022-10-25T22:32:58.628Z,4.10
2022-10-25T22:39:09.957Z,4.10
2022-10-25T22:42:13.930Z,3.10
2022-10-25T22:45:17.153Z,4.07
2022-10-25T22:48:20.361Z,3.70
2022-10-25T22:51:24.457Z,3.60
2022-10-25T22:54:28.994Z,3.20
2022-10-25T22:57:32.113Z,3.97
2022-10-25T23:00:35.234Z,4.30
2022-10-25T23:03:40.340Z,3.57
2022-10-25T23:06:43.524Z,3.03
2022-10-25T23:09:48.013Z,3.60
2022-10-25T23:12:51.403Z,3.50
2022-10-25T23:15:54.728Z,3.20
2022-10-25T23:18:58.577Z,4.00
2022-10-25T23:22:01.683Z,6.53
2022-10-25T23:25:07.088Z,6.97
2022-10-25T23:28:10.220Z,6.73
2022-10-25T23:31:15.311Z,5.63
2022-10-25T23:34:18.439Z,5.50
2022-10-25T23:37:21.591Z,5.30
2022-10-25T23:40:26.074Z,5.67
2022-10-25T23:43:29.425Z,4.60
2022-10-25T23:46:32.621Z,4.00
2022-10-25T23:49:35.718Z,4.00
2022-10-25T23:52:38.990Z,3.90
2022-10-25T23:55:43.439Z,3.47
2022-10-25T23:58:50.436Z,3.60
